sensor_id;sensor_type;location;lat;lon;timestamp;pressure;altitude;pressure_sealevel;temperature;humidity
75775;BME280;64505;51.458;7.556;2023-04-15T00:00:30;98952.81;;;4.83;83.88
75775;BME280;64505;51.458;7.556;2023-04-15T00:02:31;98950.38;;;4.82;84.60
75775;BME280;64505;51.458;7.556;2023-04-15T00:04:33;98946.56;;;4.84;84.21
75775;BME280;64505;51.458;7.556;2023-04-15T00:06:36;98956.25;;;4.84;82.53
75775;BME280;64505;51.458;7.556;2023-04-15T00:08:38;98945.94;;;4.82;82.91
75775;BME280;64505;51.458;7.556;2023-04-15T00:10:39;98945.75;;;4.84;82.41
75775;BME280;64505;51.458;7.556;2023-04-15T00:12:41;98945.38;;;4.80;82.97
75775;BME280;64505;51.458;7.556;2023-04-15T00:14:42;98953.41;;;4.79;84.63
75775;BME280;64505;51.458;7.556;2023-04-15T00:16:45;98941.13;;;4.79;84.57
75775;BME280;64505;51.458;7.556;2023-04-15T00:18:46;98941.31;;;4.78;82.99
75775;BME280;64505;51.458;7.556;2023-04-15T00:20:48;98936.69;;;4.80;82.83
75775;BME280;64505;51.458;7.556;2023-04-15T00:22:49;98946.78;;;4.76;84.73
75775;BME280;64505;51.458;7.556;2023-04-15T00:24:52;98940.91;;;4.74;84.25
75775;BME280;64505;51.458;7.556;2023-04-15T00:26:53;98942.75;;;4.74;84.51
75775;BME280;64505;51.458;7.556;2023-04-15T00:28:54;98935.50;;;4.76;84.18
75775;BME280;64505;51.458;7.556;2023-04-15T00:30:56;98943.53;;;4.74;82.25
75775;BME280;64505;51.458;7.556;2023-04-15T00:32:58;98937.53;;;4.74;83.02
75775;BME280;64505;51.458;7.556;2023-04-15T00:34:59;98939.72;;;4.77;81.48
75775;BME280;64505;51.458;7.556;2023-04-15T00:37:01;98936.50;;;4.75;83.28
75775;BME280;64505;51.458;7.556;2023-04-15T00:39:02;98935.50;;;4.69;84.51
75775;BME280;64505;51.458;7.556;2023-04-15T00:41:05;98942.16;;;4.65;85.24
75775;BME280;64505;51.458;7.556;2023-04-15T00:43:07;98937.91;;;4.64;84.93
75775;BME280;64505;51.458;7.556;2023-04-15T00:45:09;98933.69;;;4.63;83.40
75775;BME280;64505;51.458;7.556;2023-04-15T00:47:11;98937.91;;;4.64;83.58
75775;BME280;64505;51.458;7.556;2023-04-15T00:49:12;98936.53;;;4.62;84.54
75775;BME280;64505;51.458;7.556;2023-04-15T00:51:14;98940.34;;;4.59;84.17
75775;BME280;64505;51.458;7.556;2023-04-15T00:53:16;98946.19;;;4.61;83.97
75775;BME280;64505;51.458;7.556;2023-04-15T00:55:17;98946.38;;;4.60;83.06
75775;BME280;64505;51.458;7.556;2023-04-15T00:57:20;98948.22;;;4.59;82.82
75775;BME280;64505;51.458;7.556;2023-04-15T00:59:22;98945.97;;;4.56;83.91
75775;BME280;64505;51.458;7.556;2023-04-15T01:01:25;98945.38;;;4.54;83.85
75775;BME280;64505;51.458;7.556;2023-04-15T01:03:26;98945.78;;;4.51;82.97
75775;BME280;64505;51.458;7.556;2023-04-15T01:05:29;98942.78;;;4.47;82.78
75775;BME280;64505;51.458;7.556;2023-04-15T01:07:31;98945.00;;;4.44;83.53
75775;BME280;64505;51.458;7.556;2023-04-15T01:09:32;98941.97;;;4.40;83.27
75775;BME280;64505;51.458;7.556;2023-04-15T01:11:34;98941.34;;;4.38;83.33
75775;BME280;64505;51.458;7.556;2023-04-15T01:13:36;98943.78;;;4.33;83.87
75775;BME280;64505;51.458;7.556;2023-04-15T01:15:37;98940.75;;;4.30;83.72
75775;BME280;64505;51.458;7.556;2023-04-15T01:17:39;98942.75;;;4.28;84.15
75775;BME280;64505;51.458;7.556;2023-04-15T01:19:40;98946.38;;;4.27;84.36
75775;BME280;64505;51.458;7.556;2023-04-15T01:21:42;98945.38;;;4.21;84.78
75775;BME280;64505;51.458;7.556;2023-04-15T01:23:45;98948.41;;;4.18;85.07
75775;BME280;64505;51.458;7.556;2023-04-15T01:25:48;98939.16;;;4.16;84.22
75775;BME280;64505;51.458;7.556;2023-04-15T01:27:50;98941.38;;;4.12;84.77
75775;BME280;64505;51.458;7.556;2023-04-15T01:29:51;98950.38;;;4.10;84.94
75775;BME280;64505;51.458;7.556;2023-04-15T01:31:54;98943.56;;;4.09;84.64
75775;BME280;64505;51.458;7.556;2023-04-15T01:33:56;98941.72;;;4.03;85.09
75775;BME280;64505;51.458;7.556;2023-04-15T01:35:57;98948.19;;;4.00;85.35
75775;BME280;64505;51.458;7.556;2023-04-15T01:38:04;98947.38;;;4.00;84.70
75775;BME280;64505;51.458;7.556;2023-04-15T01:40:07;98941.13;;;3.94;84.52
75775;BME280;64505;51.458;7.556;2023-04-15T01:42:08;98943.94;;;3.92;84.85
75775;BME280;64505;51.458;7.556;2023-04-15T01:44:10;98936.69;;;3.88;85.27
75775;BME280;64505;51.458;7.556;2023-04-15T01:46:11;98944.72;;;3.86;85.19
75775;BME280;64505;51.458;7.556;2023-04-15T01:48:13;98942.53;;;3.83;85.43
75775;BME280;64505;51.458;7.556;2023-04-15T01:50:14;98935.66;;;3.82;85.75
75775;BME280;64505;51.458;7.556;2023-04-15T01:52:16;98939.69;;;3.78;84.96
75775;BME280;64505;51.458;7.556;2023-04-15T01:54:17;98932.84;;;3.77;85.85
75775;BME280;64505;51.458;7.556;2023-04-15T01:56:19;98936.44;;;3.76;86.20
75775;BME280;64505;51.458;7.556;2023-04-15T01:58:20;98933.03;;;3.76;86.41
75775;BME280;64505;51.458;7.556;2023-04-15T02:00:22;98932.63;;;3.72;85.74
75775;BME280;64505;51.458;7.556;2023-04-15T02:02:24;98931.19;;;3.70;86.55
75775;BME280;64505;51.458;7.556;2023-04-15T02:04:26;98941.06;;;3.68;86.14
75775;BME280;64505;51.458;7.556;2023-04-15T02:06:28;98937.81;;;3.66;85.75
75775;BME280;64505;51.458;7.556;2023-04-15T02:08:29;98951.28;;;3.63;86.54
75775;BME280;64505;51.458;7.556;2023-04-15T02:10:31;98951.50;;;3.61;86.77
75775;BME280;64505;51.458;7.556;2023-04-15T02:12:32;98950.88;;;3.59;86.92
75775;BME280;64505;51.458;7.556;2023-04-15T02:14:34;98946.47;;;3.60;87.03
75775;BME280;64505;51.458;7.556;2023-04-15T02:16:35;98953.31;;;3.61;86.07
75775;BME280;64505;51.458;7.556;2023-04-15T02:18:37;98947.28;;;3.60;86.41
75775;BME280;64505;51.458;7.556;2023-04-15T02:20:38;98959.34;;;3.61;86.63
75775;BME280;64505;51.458;7.556;2023-04-15T02:22:40;98956.75;;;3.61;87.58
75775;BME280;64505;51.458;7.556;2023-04-15T02:24:41;98946.28;;;3.61;86.29
75775;BME280;64505;51.458;7.556;2023-04-15T02:26:43;98947.69;;;3.64;87.54
75775;BME280;64505;51.458;7.556;2023-04-15T02:28:45;98959.34;;;3.61;87.45
75775;BME280;64505;51.458;7.556;2023-04-15T02:30:50;98961.97;;;3.61;87.08
75775;BME280;64505;51.458;7.556;2023-04-15T02:32:53;98959.94;;;3.63;86.75
75775;BME280;64505;51.458;7.556;2023-04-15T02:34:54;98960.75;;;3.64;86.79
75775;BME280;64505;51.458;7.556;2023-04-15T02:36:56;98961.56;;;3.64;86.24
75775;BME280;64505;51.458;7.556;2023-04-15T02:38:58;98970.22;;;3.65;86.98
75775;BME280;64505;51.458;7.556;2023-04-15T02:41:00;98969.59;;;3.63;87.18
75775;BME280;64505;51.458;7.556;2023-04-15T02:43:01;98965.38;;;3.62;86.40
75775;BME280;64505;51.458;7.556;2023-04-15T02:45:04;98970.63;;;3.62;87.57
75775;BME280;64505;51.458;7.556;2023-04-15T02:47:06;98968.00;;;3.62;86.54
75775;BME280;64505;51.458;7.556;2023-04-15T02:49:07;98972.03;;;3.64;87.34
75775;BME280;64505;51.458;7.556;2023-04-15T02:51:17;98979.88;;;3.64;86.44
75775;BME280;64505;51.458;7.556;2023-04-15T02:53:20;98972.41;;;3.61;86.63
75775;BME280;64505;51.458;7.556;2023-04-15T02:55:21;98974.22;;;3.61;86.46
75775;BME280;64505;51.458;7.556;2023-04-15T02:57:23;98979.63;;;3.59;86.21
75775;BME280;64505;51.458;7.556;2023-04-15T02:59:24;98986.47;;;3.60;87.34
75775;BME280;64505;51.458;7.556;2023-04-15T03:01:25;98988.28;;;3.60;86.37
75775;BME280;64505;51.458;7.556;2023-04-15T03:03:27;98989.09;;;3.60;86.59
75775;BME280;64505;51.458;7.556;2023-04-15T03:05:29;98989.91;;;3.61;86.79
75775;BME280;64505;51.458;7.556;2023-04-15T03:07:30;98989.28;;;3.59;87.43
75775;BME280;64505;51.458;7.556;2023-04-15T03:09:32;98995.53;;;3.58;86.11
75775;BME280;64505;51.458;7.556;2023-04-15T03:11:34;98988.69;;;3.57;85.99
75775;BME280;64505;51.458;7.556;2023-04-15T03:13:37;98993.28;;;3.55;87.14
75775;BME280;64505;51.458;7.556;2023-04-15T03:15:39;99001.34;;;3.53;86.37
75775;BME280;64505;51.458;7.556;2023-04-15T03:17:41;98997.91;;;3.53;85.92
75775;BME280;64505;51.458;7.556;2023-04-15T03:19:43;99001.94;;;3.55;87.06
75775;BME280;64505;51.458;7.556;2023-04-15T03:21:44;98989.06;;;3.54;86.09
75775;BME280;64505;51.458;7.556;2023-04-15T03:23:45;98997.09;;;3.52;86.09
75775;BME280;64505;51.458;7.556;2023-04-15T03:25:47;98994.69;;;3.51;86.77
75775;BME280;64505;51.458;7.556;2023-04-15T03:27:48;99001.50;;;3.52;86.96
75775;BME280;64505;51.458;7.556;2023-04-15T03:29:50;99000.53;;;3.53;86.71
75775;BME280;64505;51.458;7.556;2023-04-15T03:31:51;99003.53;;;3.50;86.62
75775;BME280;64505;51.458;7.556;2023-04-15T03:33:53;99005.34;;;3.49;86.83
75775;BME280;64505;51.458;7.556;2023-04-15T03:35:55;99007.72;;;3.44;86.74
75775;BME280;64505;51.458;7.556;2023-04-15T03:37:56;98999.66;;;3.39;86.54
75775;BME280;64505;51.458;7.556;2023-04-15T03:39:58;99000.84;;;3.36;86.68
75775;BME280;64505;51.458;7.556;2023-04-15T03:41:59;99011.06;;;3.31;86.48
75775;BME280;64505;51.458;7.556;2023-04-15T03:44:02;99011.66;;;3.27;86.70
75775;BME280;64505;51.458;7.556;2023-04-15T03:46:03;99010.41;;;3.23;86.97
75775;BME280;64505;51.458;7.556;2023-04-15T03:48:05;99009.00;;;3.20;87.00
75775;BME280;64505;51.458;7.556;2023-04-15T03:50:18;99010.63;;;3.21;86.51
75775;BME280;64505;51.458;7.556;2023-04-15T03:52:19;99009.59;;;3.22;87.59
75775;BME280;64505;51.458;7.556;2023-04-15T03:54:21;99005.19;;;3.23;87.30
75775;BME280;64505;51.458;7.556;2023-04-15T03:56:22;99011.44;;;3.22;87.13
75775;BME280;64505;51.458;7.556;2023-04-15T03:58:23;99007.00;;;3.22;86.69
75775;BME280;64505;51.458;7.556;2023-04-15T04:00:25;99014.06;;;3.22;86.26
75775;BME280;64505;51.458;7.556;2023-04-15T04:02:26;99015.03;;;3.21;86.25
75775;BME280;64505;51.458;7.556;2023-04-15T04:04:28;99014.66;;;3.24;87.13
75775;BME280;64505;51.458;7.556;2023-04-15T04:06:30;99012.22;;;3.22;87.61
75775;BME280;64505;51.458;7.556;2023-04-15T04:08:31;99010.81;;;3.20;88.18
75775;BME280;64505;51.458;7.556;2023-04-15T04:10:33;99009.56;;;3.16;87.66
75775;BME280;64505;51.458;7.556;2023-04-15T04:12:34;99011.59;;;3.14;87.11
75775;BME280;64505;51.458;7.556;2023-04-15T04:14:36;99011.75;;;3.12;87.36
75775;BME280;64505;51.458;7.556;2023-04-15T04:16:37;99005.13;;;3.10;87.70
75775;BME280;64505;51.458;7.556;2023-04-15T04:18:39;99008.94;;;3.07;87.57
75775;BME280;64505;51.458;7.556;2023-04-15T04:20:41;99008.31;;;3.05;87.30
75775;BME280;64505;51.458;7.556;2023-04-15T04:22:42;99008.69;;;3.02;87.32
75775;BME280;64505;51.458;7.556;2023-04-15T04:24:44;99012.50;;;3.00;86.96
75775;BME280;64505;51.458;7.556;2023-04-15T04:26:45;99019.91;;;2.96;87.64
75775;BME280;64505;51.458;7.556;2023-04-15T04:28:47;99018.69;;;2.92;87.22
75775;BME280;64505;51.458;7.556;2023-04-15T04:30:48;99019.84;;;2.89;87.28
75775;BME280;64505;51.458;7.556;2023-04-15T04:32:50;99020.44;;;2.85;87.42
75775;BME280;64505;51.458;7.556;2023-04-15T04:34:51;99025.03;;;2.83;86.87
75775;BME280;64505;51.458;7.556;2023-04-15T04:36:53;99027.03;;;2.81;87.28
75775;BME280;64505;51.458;7.556;2023-04-15T04:38:54;99032.44;;;2.79;87.77
75775;BME280;64505;51.458;7.556;2023-04-15T04:40:56;99034.22;;;2.79;87.52
75775;BME280;64505;51.458;7.556;2023-04-15T04:42:57;99035.25;;;2.78;87.41
75775;BME280;64505;51.458;7.556;2023-04-15T04:44:59;99033.63;;;2.77;86.73
75775;BME280;64505;51.458;7.556;2023-04-15T04:47:00;99033.78;;;2.75;86.99
75775;BME280;64505;51.458;7.556;2023-04-15T04:49:02;99042.25;;;2.77;87.29
75775;BME280;64505;51.458;7.556;2023-04-15T04:51:04;99043.06;;;2.78;87.49
75775;BME280;64505;51.458;7.556;2023-04-15T04:53:05;99046.06;;;2.75;87.05
75775;BME280;64505;51.458;7.556;2023-04-15T04:55:07;99048.03;;;2.73;87.19
75775;BME280;64505;51.458;7.556;2023-04-15T04:57:09;99046.41;;;2.72;86.99
75775;BME280;64505;51.458;7.556;2023-04-15T04:59:10;99054.88;;;2.74;87.52
75775;BME280;64505;51.458;7.556;2023-04-15T05:01:12;99056.09;;;2.71;87.11
75775;BME280;64505;51.458;7.556;2023-04-15T05:03:13;99051.63;;;2.72;87.21
75775;BME280;64505;51.458;7.556;2023-04-15T05:05:15;99049.03;;;2.72;87.46
75775;BME280;64505;51.458;7.556;2023-04-15T05:07:17;99063.53;;;2.74;87.18
75775;BME280;64505;51.458;7.556;2023-04-15T05:09:21;99056.31;;;2.76;88.16
75775;BME280;64505;51.458;7.556;2023-04-15T05:11:22;99058.53;;;2.79;87.54
75775;BME280;64505;51.458;7.556;2023-04-15T05:13:23;99062.38;;;2.83;88.04
75775;BME280;64505;51.458;7.556;2023-04-15T05:15:25;99064.63;;;2.86;88.23
75775;BME280;64505;51.458;7.556;2023-04-15T05:17:26;99062.44;;;2.90;87.31
75775;BME280;64505;51.458;7.556;2023-04-15T05:19:28;99070.69;;;2.93;87.79
75775;BME280;64505;51.458;7.556;2023-04-15T05:21:29;99069.53;;;2.96;87.99
75775;BME280;64505;51.458;7.556;2023-04-15T05:23:31;99071.38;;;3.02;87.52
75775;BME280;64505;51.458;7.556;2023-04-15T05:25:33;99078.81;;;3.05;87.99
75775;BME280;64505;51.458;7.556;2023-04-15T05:27:35;99083.66;;;3.08;87.74
75775;BME280;64505;51.458;7.556;2023-04-15T05:29:36;99084.91;;;3.12;87.92
75775;BME280;64505;51.458;7.556;2023-04-15T05:31:38;99080.91;;;3.16;87.14
75775;BME280;64505;51.458;7.556;2023-04-15T05:33:39;99083.56;;;3.23;88.11
75775;BME280;64505;51.458;7.556;2023-04-15T05:35:41;99086.59;;;3.26;87.30
75775;BME280;64505;51.458;7.556;2023-04-15T05:37:43;99093.06;;;3.30;87.55
75775;BME280;64505;51.458;7.556;2023-04-15T05:39:44;99096.75;;;3.36;88.62
75775;BME280;64505;51.458;7.556;2023-04-15T05:41:45;99098.75;;;3.40;88.52
75775;BME280;64505;51.458;7.556;2023-04-15T05:43:47;99097.38;;;3.44;88.70
75775;BME280;64505;51.458;7.556;2023-04-15T05:45:48;99099.59;;;3.47;88.68
75775;BME280;64505;51.458;7.556;2023-04-15T05:47:50;99104.25;;;3.52;87.72
75775;BME280;64505;51.458;7.556;2023-04-15T05:49:54;99109.75;;;3.57;87.85
75775;BME280;64505;51.458;7.556;2023-04-15T05:51:56;99109.16;;;3.62;87.29
75775;BME280;64505;51.458;7.556;2023-04-15T05:53:57;99109.59;;;3.65;87.20
75775;BME280;64505;51.458;7.556;2023-04-15T05:55:58;99110.00;;;3.69;87.43
75775;BME280;64505;51.458;7.556;2023-04-15T05:58:00;99113.66;;;3.74;86.32
75775;BME280;64505;51.458;7.556;2023-04-15T06:00:03;99111.88;;;3.81;86.61
75775;BME280;64505;51.458;7.556;2023-04-15T06:02:05;99118.75;;;3.89;87.00
75775;BME280;64505;51.458;7.556;2023-04-15T06:04:07;99116.16;;;3.95;85.96
75775;BME280;64505;51.458;7.556;2023-04-15T06:06:10;99118.81;;;4.02;86.56
75775;BME280;64505;51.458;7.556;2023-04-15T06:08:11;99122.88;;;4.11;87.32
75775;BME280;64505;51.458;7.556;2023-04-15T06:10:12;99124.53;;;4.19;87.57
75775;BME280;64505;51.458;7.556;2023-04-15T06:12:14;99130.38;;;4.27;88.05
75775;BME280;64505;51.458;7.556;2023-04-15T06:14:16;99130.19;;;4.35;87.65
75775;BME280;64505;51.458;7.556;2023-04-15T06:16:17;99139.69;;;4.43;87.38
75775;BME280;64505;51.458;7.556;2023-04-15T06:18:18;99134.47;;;4.50;86.93
75775;BME280;64505;51.458;7.556;2023-04-15T06:20:20;99149.81;;;4.59;86.53
75775;BME280;64505;51.458;7.556;2023-04-15T06:22:22;99153.25;;;4.66;86.46
75775;BME280;64505;51.458;7.556;2023-04-15T06:24:24;99148.63;;;4.75;85.94
75775;BME280;64505;51.458;7.556;2023-04-15T06:26:25;99147.44;;;4.84;85.68
75775;BME280;64505;51.458;7.556;2023-04-15T06:28:27;99145.84;;;4.89;85.38
75775;BME280;64505;51.458;7.556;2023-04-15T06:30:28;99147.44;;;4.97;85.11
75775;BME280;64505;51.458;7.556;2023-04-15T06:32:31;99151.88;;;5.03;84.19
75775;BME280;64505;51.458;7.556;2023-04-15T06:34:32;99151.09;;;5.09;84.61
75775;BME280;64505;51.458;7.556;2023-04-15T06:36:34;99155.72;;;5.14;84.70
75775;BME280;64505;51.458;7.556;2023-04-15T06:38:35;99153.13;;;5.20;84.39
75775;BME280;64505;51.458;7.556;2023-04-15T06:40:36;99157.56;;;5.26;84.39
75775;BME280;64505;51.458;7.556;2023-04-15T06:42:38;99152.31;;;5.33;84.22
75775;BME280;64505;51.458;7.556;2023-04-15T06:44:39;99150.28;;;5.41;84.27
75775;BME280;64505;51.458;7.556;2023-04-15T06:46:41;99157.97;;;5.50;83.93
75775;BME280;64505;51.458;7.556;2023-04-15T06:48:42;99153.50;;;5.57;84.80
75775;BME280;64505;51.458;7.556;2023-04-15T06:50:44;99157.50;;;5.66;84.86
75775;BME280;64505;51.458;7.556;2023-04-15T06:52:46;99154.47;;;5.75;84.20
75775;BME280;64505;51.458;7.556;2023-04-15T06:54:47;99164.75;;;5.90;83.81
75775;BME280;64505;51.458;7.556;2023-04-15T06:56:49;99163.53;;;5.99;84.32
75775;BME280;64505;51.458;7.556;2023-04-15T06:58:51;99161.09;;;6.11;83.43
75775;BME280;64505;51.458;7.556;2023-04-15T07:00:53;99159.25;;;6.18;84.38
75775;BME280;64505;51.458;7.556;2023-04-15T07:02:54;99165.66;;;6.28;84.02
75775;BME280;64505;51.458;7.556;2023-04-15T07:04:56;99167.63;;;6.39;84.50
75775;BME280;64505;51.458;7.556;2023-04-15T07:06:58;99167.75;;;6.51;82.80
75775;BME280;64505;51.458;7.556;2023-04-15T07:09:02;99160.47;;;6.60;84.82
75775;BME280;64505;51.458;7.556;2023-04-15T07:11:05;99166.66;;;6.72;83.73
75775;BME280;64505;51.458;7.556;2023-04-15T07:13:07;99168.00;;;6.81;84.29
75775;BME280;64505;51.458;7.556;2023-04-15T07:15:09;99175.22;;;6.92;83.51
75775;BME280;64505;51.458;7.556;2023-04-15T07:17:11;99164.03;;;7.03;83.91
75775;BME280;64505;51.458;7.556;2023-04-15T07:19:12;99172.63;;;7.17;81.68
75775;BME280;64505;51.458;7.556;2023-04-15T07:21:14;99164.34;;;7.20;82.19
75775;BME280;64505;51.458;7.556;2023-04-15T07:23:15;99173.56;;;7.29;80.63
75775;BME280;64505;51.458;7.556;2023-04-15T07:25:16;99166.03;;;7.32;82.05
75775;BME280;64505;51.458;7.556;2023-04-15T07:27:19;99172.41;;;7.43;81.04
75775;BME280;64505;51.458;7.556;2023-04-15T07:29:21;99174.78;;;7.51;81.13
75775;BME280;64505;51.458;7.556;2023-04-15T07:31:22;99172.97;;;7.52;80.62
75775;BME280;64505;51.458;7.556;2023-04-15T07:33:24;99163.41;;;7.57;80.75
75775;BME280;64505;51.458;7.556;2023-04-15T07:35:25;99169.94;;;7.73;79.39
75775;BME280;64505;51.458;7.556;2023-04-15T07:37:27;99168.63;;;7.82;80.01
75775;BME280;64505;51.458;7.556;2023-04-15T07:39:29;99175.66;;;7.88;79.85
75775;BME280;64505;51.458;7.556;2023-04-15T07:41:31;99174.63;;;7.89;79.94
75775;BME280;64505;51.458;7.556;2023-04-15T07:43:32;99176.53;;;8.00;79.45
75775;BME280;64505;51.458;7.556;2023-04-15T07:45:34;99181.28;;;7.91;79.14
75775;BME280;64505;51.458;7.556;2023-04-15T07:47:35;99186.41;;;8.23;77.96
75775;BME280;64505;51.458;7.556;2023-04-15T07:49:37;99182.94;;;8.29;78.38
75775;BME280;64505;51.458;7.556;2023-04-15T07:51:38;99179.97;;;8.19;78.03
75775;BME280;64505;51.458;7.556;2023-04-15T07:53:40;99185.03;;;8.20;77.50
75775;BME280;64505;51.458;7.556;2023-04-15T07:55:42;99185.97;;;8.26;78.08
75775;BME280;64505;51.458;7.556;2023-04-15T07:57:44;99189.34;;;8.51;78.12
75775;BME280;64505;51.458;7.556;2023-04-15T07:59:45;99185.16;;;8.62;77.09
75775;BME280;64505;51.458;7.556;2023-04-15T08:01:47;99184.94;;;8.63;77.20
75775;BME280;64505;51.458;7.556;2023-04-15T08:03:48;99185.66;;;8.70;77.13
75775;BME280;64505;51.458;7.556;2023-04-15T08:05:50;99187.75;;;8.80;76.81
75775;BME280;64505;51.458;7.556;2023-04-15T08:07:51;99191.47;;;8.90;76.29
75775;BME280;64505;51.458;7.556;2023-04-15T08:09:53;99195.78;;;9.15;76.53
75775;BME280;64505;51.458;7.556;2023-04-15T08:11:54;99194.94;;;9.03;75.90
75775;BME280;64505;51.458;7.556;2023-04-15T08:13:57;99186.50;;;9.24;76.49
75775;BME280;64505;51.458;7.556;2023-04-15T08:16:19;99192.13;;;9.27;74.58
75775;BME280;64505;51.458;7.556;2023-04-15T08:18:21;99195.38;;;9.29;74.56
75775;BME280;64505;51.458;7.556;2023-04-15T08:20:22;99191.25;;;9.45;74.72
75775;BME280;64505;51.458;7.556;2023-04-15T08:22:24;99196.16;;;9.30;74.95
75775;BME280;64505;51.458;7.556;2023-04-15T08:24:25;99187.81;;;9.68;74.61
75775;BME280;64505;51.458;7.556;2023-04-15T08:26:27;99192.53;;;9.77;74.72
75775;BME280;64505;51.458;7.556;2023-04-15T08:28:29;99193.59;;;9.76;74.43
75775;BME280;64505;51.458;7.556;2023-04-15T08:30:30;99192.44;;;9.72;73.73
75775;BME280;64505;51.458;7.556;2023-04-15T08:32:32;99199.75;;;9.59;73.26
75775;BME280;64505;51.458;7.556;2023-04-15T08:34:33;99194.59;;;9.52;73.53
75775;BME280;64505;51.458;7.556;2023-04-15T08:36:38;99193.91;;;9.57;74.57
75775;BME280;64505;51.458;7.556;2023-04-15T08:38:50;99190.59;;;9.61;74.91
75775;BME280;64505;51.458;7.556;2023-04-15T08:40:51;99200.56;;;9.59;74.30
75775;BME280;64505;51.458;7.556;2023-04-15T08:42:54;99205.38;;;9.74;73.84
75775;BME280;64505;51.458;7.556;2023-04-15T08:44:58;99202.28;;;9.77;74.73
75775;BME280;64505;51.458;7.556;2023-04-15T08:47:01;99204.94;;;9.65;73.95
75775;BME280;64505;51.458;7.556;2023-04-15T08:49:04;99204.16;;;9.76;73.13
75775;BME280;64505;51.458;7.556;2023-04-15T08:51:06;99207.47;;;9.72;73.69
75775;BME280;64505;51.458;7.556;2023-04-15T08:53:09;99210.31;;;9.82;72.70
75775;BME280;64505;51.458;7.556;2023-04-15T08:55:12;99209.75;;;9.92;72.04
75775;BME280;64505;51.458;7.556;2023-04-15T08:57:14;99215.41;;;9.83;71.78
75775;BME280;64505;51.458;7.556;2023-04-15T08:59:16;99220.41;;;9.73;73.54
75775;BME280;64505;51.458;7.556;2023-04-15T09:01:18;99219.19;;;9.76;73.28
75775;BME280;64505;51.458;7.556;2023-04-15T09:03:21;99216.09;;;9.91;72.56
75775;BME280;64505;51.458;7.556;2023-04-15T09:05:24;99220.75;;;9.54;72.58
75775;BME280;64505;51.458;7.556;2023-04-15T09:07:25;99225.97;;;9.83;73.92
75775;BME280;64505;51.458;7.556;2023-04-15T09:09:27;99226.88;;;9.89;72.97
75775;BME280;64505;51.458;7.556;2023-04-15T09:11:29;99235.22;;;10.09;73.22
75775;BME280;64505;51.458;7.556;2023-04-15T09:13:31;99229.94;;;10.09;72.47
75775;BME280;64505;51.458;7.556;2023-04-15T09:15:36;99225.63;;;10.15;71.84
75775;BME280;64505;51.458;7.556;2023-04-15T09:17:42;99234.56;;;10.25;72.47
75775;BME280;64505;51.458;7.556;2023-04-15T09:19:44;99236.53;;;10.18;72.49
75775;BME280;64505;51.458;7.556;2023-04-15T09:21:46;99238.94;;;10.20;72.74
75775;BME280;64505;51.458;7.556;2023-04-15T09:23:58;99242.03;;;10.05;72.25
75775;BME280;64505;51.458;7.556;2023-04-15T09:26:01;99246.63;;;10.21;72.61
75775;BME280;64505;51.458;7.556;2023-04-15T09:28:03;99250.53;;;10.30;71.21
75775;BME280;64505;51.458;7.556;2023-04-15T09:30:07;99253.53;;;10.34;72.22
75775;BME280;64505;51.458;7.556;2023-04-15T09:32:13;99250.06;;;10.10;73.38
75775;BME280;64505;51.458;7.556;2023-04-15T09:34:16;99253.88;;;10.14;72.80
75775;BME280;64505;51.458;7.556;2023-04-15T09:36:18;99253.50;;;10.11;73.16
75775;BME280;64505;51.458;7.556;2023-04-15T09:38:19;99255.59;;;10.20;72.96
75775;BME280;64505;51.458;7.556;2023-04-15T09:40:34;99257.28;;;9.80;72.13
75775;BME280;64505;51.458;7.556;2023-04-15T09:42:36;99259.34;;;9.78;73.70
75775;BME280;64505;51.458;7.556;2023-04-15T09:44:53;99262.22;;;9.88;73.51
75775;BME280;64505;51.458;7.556;2023-04-15T09:46:55;99257.66;;;9.83;73.06
75775;BME280;64505;51.458;7.556;2023-04-15T09:49:10;99261.41;;;9.76;74.04
75775;BME280;64505;51.458;7.556;2023-04-15T09:51:11;99256.38;;;9.86;74.16
75775;BME280;64505;51.458;7.556;2023-04-15T09:53:18;99259.94;;;9.80;73.55
75775;BME280;64505;51.458;7.556;2023-04-15T09:55:19;99271.84;;;9.71;74.25
75775;BME280;64505;51.458;7.556;2023-04-15T09:57:21;99266.34;;;9.72;73.31
75775;BME280;64505;51.458;7.556;2023-04-15T09:59:23;99276.22;;;9.77;74.20
75775;BME280;64505;51.458;7.556;2023-04-15T10:01:25;99278.56;;;9.55;73.95
75775;BME280;64505;51.458;7.556;2023-04-15T10:03:28;99281.59;;;9.70;73.86
75775;BME280;64505;51.458;7.556;2023-04-15T10:05:31;99274.75;;;9.93;73.58
75775;BME280;64505;51.458;7.556;2023-04-15T10:07:33;99281.06;;;10.03;73.31
75775;BME280;64505;51.458;7.556;2023-04-15T10:09:35;99278.31;;;9.86;73.22
75775;BME280;64505;51.458;7.556;2023-04-15T10:11:38;99283.94;;;9.90;73.25
75775;BME280;64505;51.458;7.556;2023-04-15T10:13:40;99273.38;;;9.90;73.02
75775;BME280;64505;51.458;7.556;2023-04-15T10:15:43;99283.97;;;9.49;74.89
75775;BME280;64505;51.458;7.556;2023-04-15T10:17:46;99287.44;;;9.19;75.58
75775;BME280;64505;51.458;7.556;2023-04-15T10:19:53;99293.41;;;9.56;75.18
75775;BME280;64505;51.458;7.556;2023-04-15T10:21:54;99295.47;;;9.66;75.01
75775;BME280;64505;51.458;7.556;2023-04-15T10:23:57;99294.16;;;9.45;74.93
75775;BME280;64505;51.458;7.556;2023-04-15T10:25:59;99295.97;;;9.74;74.27
75775;BME280;64505;51.458;7.556;2023-04-15T10:28:01;99295.97;;;9.74;74.24
75775;BME280;64505;51.458;7.556;2023-04-15T10:30:04;99301.28;;;9.45;74.72
75775;BME280;64505;51.458;7.556;2023-04-15T10:32:06;99295.56;;;9.48;75.33
75775;BME280;64505;51.458;7.556;2023-04-15T10:34:08;99297.47;;;9.40;76.00
75775;BME280;64505;51.458;7.556;2023-04-15T10:36:11;99299.13;;;9.53;75.08
75775;BME280;64505;51.458;7.556;2023-04-15T10:38:44;99304.41;;;9.53;75.94
75775;BME280;64505;51.458;7.556;2023-04-15T10:40:49;99301.13;;;9.69;74.93
75775;BME280;64505;51.458;7.556;2023-04-15T10:42:50;99310.19;;;9.62;74.89
75775;BME280;64505;51.458;7.556;2023-04-15T10:44:55;99307.78;;;9.72;75.49
75775;BME280;64505;51.458;7.556;2023-04-15T10:46:57;99311.94;;;9.79;75.68
75775;BME280;64505;51.458;7.556;2023-04-15T10:49:06;99309.22;;;9.56;75.40
75775;BME280;64505;51.458;7.556;2023-04-15T10:51:08;99316.22;;;9.51;75.74
75775;BME280;64505;51.458;7.556;2023-04-15T10:53:09;99315.03;;;9.35;76.17
75775;BME280;64505;51.458;7.556;2023-04-15T10:55:18;99316.44;;;9.49;75.59